createdAt,value
2022-10-19T00:00:00.182Z,1010.19
2022-10-19T00:05:00.118Z,1010.2
2022-10-19T00:10:00.121Z,1010.13
2022-10-19T00:15:00.090Z,1010.14
2022-10-19T00:20:00.126Z,1009.99
2022-10-19T00:25:00.115Z,1010.07
2022-10-19T00:30:00.157Z,1010.16
2022-10-19T00:35:00.109Z,1010
2022-10-19T00:40:00.167Z,1010.03
2022-10-19T00:45:00.113Z,1010.06
2022-10-19T00:50:00.125Z,1010
2022-10-19T00:55:00.119Z,1010.08
2022-10-19T01:00:00.216Z,1010.02
2022-10-19T01:05:00.155Z,1009.91
2022-10-19T01:10:00.174Z,1009.97
2022-10-19T01:15:00.126Z,1009.94
2022-10-19T01:20:00.151Z,1009.98
2022-10-19T01:25:00.179Z,1009.91
2022-10-19T01:30:00.179Z,1009.91
2022-10-19T01:35:00.104Z,1009.88
2022-10-19T01:40:00.172Z,1009.91
2022-10-19T01:45:00.118Z,1009.96
2022-10-19T01:50:00.149Z,1010
2022-10-19T01:55:00.116Z,1009.94
2022-10-19T02:00:00.188Z,1009.95
2022-10-19T02:05:00.153Z,1009.99
2022-10-19T02:10:00.137Z,1010.06
2022-10-19T02:15:00.120Z,1009.94
2022-10-19T02:20:00.132Z,1010.04
2022-10-19T02:25:00.119Z,1009.83
2022-10-19T02:30:00.140Z,1009.89
2022-10-19T02:35:00.136Z,1009.96
2022-10-19T02:40:00.134Z,1009.75
2022-10-19T02:45:00.114Z,1009.76
2022-10-19T02:50:00.152Z,1009.62
2022-10-19T02:55:00.117Z,1009.64
2022-10-19T03:00:00.156Z,1009.73
2022-10-19T03:05:00.129Z,1009.81
2022-10-19T03:10:00.133Z,1009.9
2022-10-19T03:15:00.132Z,1009.9
2022-10-19T03:20:00.117Z,1009.82
2022-10-19T03:25:00.096Z,1009.87
2022-10-19T03:30:00.166Z,1009.48
2022-10-19T03:35:00.148Z,1009.42
2022-10-19T03:40:00.135Z,1009.59
2022-10-19T03:45:00.100Z,1009.59
2022-10-19T03:50:00.114Z,1009.47
2022-10-19T03:55:00.134Z,1009.55
2022-10-19T04:00:00.199Z,1009.5
2022-10-19T04:05:00.137Z,1009.49
2022-10-19T04:10:00.101Z,1009.47
2022-10-19T04:15:00.091Z,1009.62
2022-10-19T04:20:00.187Z,1009.61
2022-10-19T04:25:00.094Z,1009.68
2022-10-19T04:30:00.139Z,1009.68
2022-10-19T04:35:00.097Z,1009.73
2022-10-19T04:40:00.133Z,1009.74
2022-10-19T04:45:00.118Z,1009.72
2022-10-19T04:50:00.138Z,1009.74
2022-10-19T04:55:00.124Z,1009.69
2022-10-19T05:00:00.226Z,1009.68
2022-10-19T05:05:00.092Z,1009.68
2022-10-19T05:10:00.093Z,1009.61
2022-10-19T05:15:00.120Z,1009.66
2022-10-19T05:20:00.130Z,1009.66
2022-10-19T05:25:00.098Z,1009.7
2022-10-19T05:30:00.126Z,1009.73
2022-10-19T05:35:00.107Z,1009.76
2022-10-19T05:40:00.113Z,1009.89
2022-10-19T05:45:00.107Z,1009.79
2022-10-19T05:50:00.100Z,1009.94
2022-10-19T05:55:00.094Z,1009.87
2022-10-19T06:00:00.142Z,1009.96
2022-10-19T06:05:00.103Z,1009.99
2022-10-19T06:10:00.132Z,1009.88
2022-10-19T06:15:00.133Z,1010.02
2022-10-19T06:20:00.139Z,1009.98
2022-10-19T06:25:00.109Z,1010.13
2022-10-19T06:30:00.131Z,1010.16
2022-10-19T06:35:00.112Z,1010.22
2022-10-19T06:40:03.530Z,1010.16
2022-10-19T06:45:00.097Z,1010.27
2022-10-19T06:50:00.122Z,1010.23
2022-10-19T06:55:00.101Z,1010.3
2022-10-19T07:00:00.365Z,1010.39
2022-10-19T07:05:03.272Z,1010.5
2022-10-19T07:10:00.101Z,1010.46
2022-10-19T07:15:00.098Z,1010.58
2022-10-19T07:20:00.112Z,1010.53
2022-10-19T07:25:00.100Z,1010.57
2022-10-19T07:30:00.143Z,1010.52
2022-10-19T07:35:00.125Z,1010.6
2022-10-19T07:40:00.130Z,1010.63
2022-10-19T07:45:00.109Z,1010.63
2022-10-19T07:50:00.092Z,1010.59
2022-10-19T07:55:00.084Z,1010.64
2022-10-19T08:00:00.163Z,1010.68
2022-10-19T08:05:02.923Z,1010.73
2022-10-19T08:10:00.097Z,1010.73
2022-10-19T08:15:00.111Z,1010.74
2022-10-19T08:20:00.135Z,1010.86
2022-10-19T08:25:00.100Z,1010.77
2022-10-19T08:30:00.186Z,1010.78
2022-10-19T08:35:00.120Z,1010.79
2022-10-19T08:40:00.169Z,1010.88
2022-10-19T08:45:00.119Z,1010.8
2022-10-19T08:50:00.110Z,1010.81
2022-10-19T08:55:00.099Z,1010.82
2022-10-19T09:00:00.180Z,1010.75
2022-10-19T09:05:00.102Z,1010.68
2022-10-19T09:10:00.115Z,1010.76
2022-10-19T09:15:00.126Z,1010.81
2022-10-19T09:20:00.131Z,1010.82
2022-10-19T09:25:00.093Z,1010.72
2022-10-19T09:30:00.123Z,1010.83
2022-10-19T09:35:00.106Z,1010.8
2022-10-19T09:40:00.135Z,1010.79
2022-10-19T09:45:00.115Z,1010.77
2022-10-19T09:50:00.114Z,1010.85
2022-10-19T09:55:00.103Z,1010.95
2022-10-19T10:00:00.182Z,1010.84
2022-10-19T10:05:00.119Z,1010.8
2022-10-19T10:10:00.095Z,1010.72
2022-10-19T10:15:00.121Z,1010.85
2022-10-19T10:20:00.123Z,1010.92
2022-10-19T10:25:00.114Z,1010.88
2022-10-19T10:30:00.277Z,1010.91
2022-10-19T10:35:01.420Z,1010.83
2022-10-19T10:40:01.816Z,1011
2022-10-19T10:45:00.101Z,1010.84
2022-10-19T10:50:00.097Z,1010.89
2022-10-19T10:55:00.116Z,1010.96
2022-10-19T11:00:00.186Z,1011.04
2022-10-19T11:05:00.131Z,1010.92
2022-10-19T11:10:00.115Z,1011.01
2022-10-19T11:15:00.095Z,1010.9
2022-10-19T11:20:00.133Z,1011.01
2022-10-19T11:25:00.118Z,1010.81
2022-10-19T11:30:00.134Z,1010.69
2022-10-19T11:35:00.097Z,1010.69
2022-10-19T11:40:00.137Z,1010.67
2022-10-19T11:45:00.102Z,1010.72
2022-10-19T11:50:00.172Z,1010.68
2022-10-19T11:55:00.146Z,1010.71
2022-10-19T12:00:03.756Z,1010.72
2022-10-19T12:05:00.091Z,1010.64
2022-10-19T12:10:00.098Z,1010.52
2022-10-19T12:15:00.097Z,1010.45
2022-10-19T12:20:00.119Z,1010.34
2022-10-19T12:25:00.101Z,1010.31
2022-10-19T12:30:00.135Z,1010.32
2022-10-19T12:35:00.124Z,1010.39
2022-10-19T12:40:00.124Z,1010.26
2022-10-19T12:45:00.092Z,1010.29
2022-10-19T12:50:00.095Z,1010.28
2022-10-19T12:55:00.103Z,1010.22
2022-10-19T13:00:00.171Z,1010.17
2022-10-19T13:05:00.111Z,1010.04
2022-10-19T13:10:00.099Z,1010.11
2022-10-19T13:15:00.111Z,1009.98
2022-10-19T13:20:00.128Z,1010.08
2022-10-19T13:25:02.189Z,1010.07
2022-10-19T13:30:00.111Z,1010.07
2022-10-19T13:35:00.107Z,1010.09
2022-10-19T13:40:00.172Z,1010.08
2022-10-19T13:45:00.090Z,1010.02
2022-10-19T13:50:00.158Z,1010.01
2022-10-19T13:55:00.102Z,1010.1
2022-10-19T14:00:00.171Z,1010.13
2022-10-19T14:05:00.100Z,1010.21
2022-10-19T14:10:00.117Z,1010.09
2022-10-19T14:15:00.095Z,1009.99
2022-10-19T14:20:00.167Z,1009.93
2022-10-19T14:25:00.144Z,1009.93
2022-10-19T14:30:00.121Z,1009.92
2022-10-19T14:35:00.197Z,1009.85
2022-10-19T14:40:00.154Z,1009.84
2022-10-19T14:45:00.092Z,1009.93
2022-10-19T14:50:00.083Z,1009.85
2022-10-19T14:55:00.102Z,1009.86
2022-10-19T15:00:00.171Z,1009.89
2022-10-19T15:05:00.111Z,1009.85
2022-10-19T15:10:00.161Z,1009.85
2022-10-19T15:15:00.130Z,1009.76
2022-10-19T15:20:00.217Z,1009.74
2022-10-19T15:25:00.108Z,1009.77
2022-10-19T15:30:00.220Z,1009.7
2022-10-19T15:35:00.086Z,1009.71
2022-10-19T15:40:00.167Z,1009.79
2022-10-19T15:45:00.149Z,1009.67
2022-10-19T15:50:00.139Z,1009.66
2022-10-19T15:55:00.155Z,1009.65
2022-10-19T16:00:00.150Z,1009.61
2022-10-19T16:05:00.305Z,1009.63
2022-10-19T16:10:00.144Z,1009.47
2022-10-19T16:15:00.117Z,1009.47
2022-10-19T16:20:00.137Z,1009.57
2022-10-19T16:25:00.114Z,1009.58
2022-10-19T16:30:00.154Z,1009.62
2022-10-19T16:35:00.108Z,1009.73
2022-10-19T16:40:00.114Z,1009.74
2022-10-19T16:45:00.112Z,1009.65
2022-10-19T16:50:00.140Z,1009.79
2022-10-19T16:55:00.115Z,1009.75
2022-10-19T17:00:00.182Z,1009.75
2022-10-19T17:05:00.126Z,1009.71
2022-10-19T17:10:00.259Z,1009.65
2022-10-19T17:15:23.787Z,1009.62
2022-10-19T17:20:00.126Z,1009.63
2022-10-19T17:25:00.091Z,1009.73
2022-10-19T17:30:00.215Z,1009.8
2022-10-19T17:35:00.131Z,1009.69
2022-10-19T17:40:00.178Z,1009.64
2022-10-19T17:45:00.155Z,1009.66
2022-10-19T17:50:00.109Z,1009.66
2022-10-19T17:55:11.513Z,1009.68
2022-10-19T18:00:00.143Z,1009.68
2022-10-19T18:05:00.114Z,1009.67
2022-10-19T18:10:00.095Z,1009.74
2022-10-19T18:15:00.085Z,1009.64
2022-10-19T18:20:00.149Z,1009.68
2022-10-19T18:25:00.125Z,1009.71
2022-10-19T18:30:00.186Z,1009.65
2022-10-19T18:35:00.123Z,1009.65
2022-10-19T18:40:00.121Z,1009.57
2022-10-19T18:45:00.152Z,1009.54
2022-10-19T18:50:00.108Z,1009.45
2022-10-19T18:55:00.121Z,1009.46
2022-10-19T19:00:00.190Z,1009.46
2022-10-19T19:05:00.104Z,1009.4
2022-10-19T19:10:00.130Z,1009.29
2022-10-19T19:15:00.114Z,1009.3
2022-10-19T19:20:00.128Z,1009.28
2022-10-19T19:25:00.146Z,1009.33
2022-10-19T19:30:00.148Z,1009.33
2022-10-19T19:35:00.121Z,1009.33
2022-10-19T19:40:00.167Z,1009.42
2022-10-19T19:45:00.103Z,1009.46
2022-10-19T19:50:00.156Z,1009.45
2022-10-19T20:00:00.204Z,1009.4
2022-10-19T20:05:00.167Z,1009.36
2022-10-19T20:10:00.109Z,1009.43
2022-10-19T20:15:00.153Z,1009.45
2022-10-19T20:20:00.122Z,1009.49
2022-10-19T20:25:00.093Z,1009.46
2022-10-19T20:30:00.142Z,1009.82
2022-10-19T20:35:00.124Z,1009.85
2022-10-19T20:40:01.476Z,1009.86
2022-10-19T20:45:00.150Z,1009.77
2022-10-19T20:50:00.225Z,1009.85
2022-10-19T20:55:00.124Z,1009.72
2022-10-19T21:00:00.173Z,1009.73
2022-10-19T21:05:00.187Z,1009.75
2022-10-19T21:10:00.104Z,1009.7
2022-10-19T21:15:00.153Z,1009.55
2022-10-19T21:20:00.167Z,1009.49
2022-10-19T21:25:00.214Z,1009.4
2022-10-19T21:30:00.170Z,1009.35
2022-10-19T21:35:00.139Z,1009.37
2022-10-19T21:40:00.152Z,1009.35
2022-10-19T21:45:11.813Z,1009.23
2022-10-19T21:50:00.101Z,1009.18
2022-10-19T21:55:00.120Z,1009.18
2022-10-19T22:00:00.259Z,1009.16
2022-10-19T22:05:00.129Z,1009.11
2022-10-19T22:10:00.130Z,1009.02
2022-10-19T22:15:00.133Z,1009.09
2022-10-19T22:20:00.150Z,1009.08
2022-10-19T22:25:00.147Z,1009.05
2022-10-19T22:30:00.137Z,1009.04
2022-10-19T22:35:00.117Z,1009.05
2022-10-19T22:40:00.133Z,1008.96
2022-10-19T22:45:00.100Z,1008.92
2022-10-19T22:50:00.170Z,1008.82
2022-10-19T22:55:00.123Z,1008.88
2022-10-19T23:00:00.191Z,1008.81
2022-10-19T23:05:00.110Z,1008.81
2022-10-19T23:10:00.145Z,1008.79
2022-10-19T23:15:00.107Z,1008.72
2022-10-19T23:20:00.120Z,1008.63
2022-10-19T23:25:00.128Z,1008.57
2022-10-19T23:30:00.143Z,1008.57
2022-10-19T23:35:00.111Z,1008.46
2022-10-19T23:40:00.120Z,1008.45
2022-10-19T23:45:00.134Z,1008.44
2022-10-19T23:50:00.088Z,1008.33
2022-10-19T23:55:00.159Z,1008.46
